Time;durP1;ratioP1;P1;durP2;ratioP2;P2;SDS_P1;SDS_P2;PMS_P1;PMS_P2;Temp;Humidity;BMP_temperature;BMP_pressure;BME280_temperature;BME280_humidity;BME280_pressure;Samples;Min_cycle;Max_cycle;Signal;HPM_P1;HPM_P2
2021/06/19 00:01:34;;;;;;;9.63;4.50;;;26.40;88.50;;;;;;5076274;28;20289;-58
2021/06/19 00:04:00;;;;;;;12.63;4.13;;;26.50;88.60;;;;;;5086763;28;20176;-58
2021/06/19 00:06:26;;;;;;;11.53;4.00;;;26.40;88.90;;;;;;5096251;28;20612;-58
2021/06/19 00:08:51;;;;;;;11.43;4.40;;;26.40;89.60;;;;;;5096224;28;20637;-59
2021/06/19 00:11:18;;;;;;;5.67;3.33;;;26.50;89.30;;;;;;5096151;28;20403;-59
2021/06/19 00:13:44;;;;;;;10.13;3.73;;;26.60;89.10;;;;;;5096234;28;20202;-58
2021/06/19 00:16:10;;;;;;;6.90;3.80;;;26.60;89.10;;;;;;5095837;28;20472;-58
2021/06/19 00:18:36;;;;;;;9.40;4.70;;;26.60;89.70;;;;;;5095834;28;20853;-59
2021/06/19 00:21:01;;;;;;;11.00;4.03;;;26.50;90.10;;;;;;5095961;28;20173;-57
2021/06/19 00:23:27;;;;;;;9.37;4.23;;;26.60;90.20;;;;;;5096175;28;20199;-55
2021/06/19 00:25:53;;;;;;;9.40;4.83;;;26.50;90.50;;;;;;5095904;28;20189;-56
2021/06/19 00:28:19;;;;;;;13.93;5.70;;;26.20;92.00;;;;;;5096242;28;20593;-57
2021/06/19 00:30:44;;;;;;;12.43;5.40;;;25.40;94.60;;;;;;5095918;28;20185;-56
2021/06/19 00:33:10;;;;;;;13.10;5.33;;;25.10;95.50;;;;;;5095523;28;20226;-56
2021/06/19 00:35:36;;;;;;;10.80;6.40;;;25.30;95.60;;;;;;5095489;28;20226;-54
2021/06/19 00:38:02;;;;;;;15.60;6.13;;;25.50;95.60;;;;;;5094881;28;20204;-58
2021/06/19 00:40:28;;;;;;;9.40;5.87;;;25.50;95.50;;;;;;5095922;28;20435;-58
2021/06/19 00:42:59;;;;;;;14.80;6.80;;;25.40;95.70;;;;;;5095486;28;20168;-58
2021/06/19 00:45:27;;;;;;;16.37;6.40;;;25.40;95.80;;;;;;5095863;28;20192;-58
2021/06/19 00:47:53;;;;;;;10.20;5.00;;;25.40;95.30;;;;;;5094150;28;20802;-58
2021/06/19 00:50:20;;;;;;;10.80;5.70;;;25.30;95.80;;;;;;5096041;28;20410;-58
2021/06/19 00:52:47;;;;;;;12.17;5.20;;;25.20;95.00;;;;;;5095464;28;20165;-58
2021/06/19 00:55:13;;;;;;;14.30;5.20;;;25.30;95.00;;;;;;5095348;28;20816;-57
2021/06/19 00:57:40;;;;;;;11.47;4.80;;;25.60;94.40;;;;;;5095246;28;20410;-58
2021/06/19 01:00:08;;;;;;;9.80;4.83;;;25.80;94.30;;;;;;5095168;28;20439;-58
2021/06/19 01:02:35;;;;;;;9.77;4.27;;;25.90;94.40;;;;;;5094678;28;20403;-57
2021/06/19 01:05:01;;;;;;;9.97;4.57;;;25.70;94.90;;;;;;5095111;28;20423;-56
2021/06/19 01:07:27;;;;;;;8.47;4.53;;;25.10;96.40;;;;;;5094965;28;20400;-57
2021/06/19 01:09:52;;;;;;;9.53;4.33;;;24.90;97.40;;;;;;5095294;28;20511;-56
2021/06/19 01:12:23;;;;;;;9.60;4.33;;;24.80;97.90;;;;;;5094967;28;20407;-57
2021/06/19 01:14:51;;;;;;;7.47;4.37;;;24.60;98.60;;;;;;5094609;28;20199;-57
2021/06/19 01:17:18;;;;;;;12.30;5.07;;;24.50;99.30;;;;;;5094779;28;20895;-57
2021/06/19 01:19:44;;;;;;;10.47;5.80;;;24.60;99.80;;;;;;5093625;28;20447;-57
2021/06/19 01:22:10;;;;;;;17.27;5.53;;;24.80;99.80;;;;;;5095067;28;20404;-57
2021/06/19 01:24:36;;;;;;;14.13;5.63;;;24.90;99.90;;;;;;5095076;28;20407;-57
2021/06/19 01:27:01;;;;;;;6.77;4.43;;;25.20;99.90;;;;;;5093666;28;20686;-57
2021/06/19 01:29:27;;;;;;;9.03;5.13;;;25.30;99.10;;;;;;5094143;28;20226;-55
2021/06/19 01:31:53;;;;;;;9.77;5.07;;;25.50;98.50;;;;;;5094433;28;20181;-56
2021/06/19 01:34:18;;;;;;;6.80;4.67;;;25.60;98.80;;;;;;5094391;28;20180;-57
2021/06/19 01:36:44;;;;;;;10.80;5.50;;;25.70;98.30;;;;;;5094401;28;20200;-56
2021/06/19 01:39:10;;;;;;;8.03;5.50;;;25.70;98.30;;;;;;5094725;28;20723;-55
2021/06/19 01:41:36;;;;;;;12.00;5.37;;;25.60;97.40;;;;;;5094525;28;20161;-57
2021/06/19 01:44:08;;;;;;;15.93;5.70;;;25.30;97.50;;;;;;5094610;28;20162;-57
2021/06/19 01:46:35;;;;;;;11.63;5.17;;;25.50;97.30;;;;;;5094207;28;20411;-57
2021/06/19 01:49:02;;;;;;;8.73;5.13;;;25.50;96.60;;;;;;5093982;28;20407;-57
2021/06/19 01:51:27;;;;;;;7.50;4.80;;;25.70;96.80;;;;;;5094107;28;20456;-54
2021/06/19 01:53:54;;;;;;;11.80;5.60;;;25.80;96.70;;;;;;5094124;28;20403;-57
2021/06/19 01:56:21;;;;;;;7.20;5.03;;;25.80;96.80;;;;;;5094052;28;20207;-57
2021/06/19 01:58:47;;;;;;;10.63;5.37;;;25.70;97.10;;;;;;5093972;28;20439;-57
2021/06/19 02:01:14;;;;;;;10.23;5.30;;;25.60;96.70;;;;;;5094380;28;20748;-56
2021/06/19 02:03:41;;;;;;;11.30;5.80;;;25.50;97.90;;;;;;5093956;28;20686;-53
2021/06/19 02:06:06;;;;;;;11.50;5.50;;;25.60;97.60;;;;;;5094532;28;20423;-57
2021/06/19 02:08:33;;;;;;;12.70;4.87;;;25.70;97.40;;;;;;5094413;28;20856;-56
2021/06/19 02:10:59;;;;;;;11.07;5.43;;;25.80;97.60;;;;;;5094229;28;20161;-57
2021/06/19 02:13:26;;;;;;;14.33;5.33;;;25.80;97.30;;;;;;5094297;28;20412;-57
2021/06/19 02:15:53;;;;;;;10.13;5.30;;;25.90;97.50;;;;;;5094097;28;20427;-57
2021/06/19 02:18:18;;;;;;;12.47;5.33;;;25.90;97.80;;;;;;5093167;28;20415;-57
2021/06/19 02:20:48;;;;;;;11.67;6.03;;;25.90;98.70;;;;;;5094301;28;20398;-57
2021/06/19 02:23:13;;;;;;;10.13;5.80;;;25.90;99.10;;;;;;5094137;28;20262;-56
2021/06/19 02:25:39;;;;;;;10.57;5.60;;;25.90;99.80;;;;;;5094158;28;20419;-57
2021/06/19 02:28:09;;;;;;;9.87;5.80;;;25.50;99.90;;;;;;5093392;28;20192;-57
2021/06/19 02:30:41;;;;;;;9.13;6.10;;;25.50;99.90;;;;;;5093956;28;20235;-56
2021/06/19 02:33:07;;;;;;;9.30;4.83;;;25.50;99.90;;;;;;5093252;28;20419;-57
2021/06/19 02:35:36;;;;;;;14.37;5.80;;;25.50;99.90;;;;;;5093503;28;20539;-57
2021/06/19 02:38:02;;;;;;;9.30;5.47;;;25.10;99.90;;;;;;5093334;28;20456;-57
2021/06/19 02:40:28;;;;;;;10.03;6.63;;;25.00;99.90;;;;;;5093509;28;20450;-57
2021/06/19 02:42:54;;;;;;;9.27;5.03;;;24.80;99.90;;;;;;5093899;28;20396;-57
2021/06/19 02:45:20;;;;;;;8.20;5.37;;;24.80;99.90;;;;;;5093255;28;20264;-58
2021/06/19 02:47:48;;;;;;;8.13;6.27;;;25.00;99.90;;;;;;5093641;28;20828;-58
2021/06/19 02:50:15;;;;;;;13.80;7.20;;;24.70;99.90;;;;;;5093144;28;20201;-58
2021/06/19 02:52:42;;;;;;;12.60;6.57;;;24.30;99.90;;;;;;5093887;28;20421;-58
2021/06/19 02:57:52;;;;;;;10.93;5.73;;;24.30;99.90;;;;;;5091756;28;20498;-58
2021/06/19 03:00:20;;;;;;;7.10;4.97;;;24.30;99.90;;;;;;5092984;28;20479;-55
2021/06/19 03:02:46;;;;;;;11.57;6.67;;;24.30;99.90;;;;;;5093005;28;20162;-58
2021/06/19 03:05:14;;;;;;;9.73;6.30;;;24.10;99.90;;;;;;5092625;28;20419;-57
2021/06/19 03:07:41;;;;;;;9.97;6.40;;;24.20;99.90;;;;;;5092921;28;20177;-58
2021/06/19 03:10:09;;;;;;;16.37;7.70;;;24.10;99.90;;;;;;5092988;28;20429;-56
2021/06/19 03:12:35;;;;;;;10.50;6.73;;;24.10;99.90;;;;;;5092891;28;20453;-58
2021/06/19 03:15:00;;;;;;;11.80;7.13;;;24.20;99.90;;;;;;5074865;28;20911;-58
2021/06/19 03:17:26;;;;;;;9.30;5.80;;;24.30;99.90;;;;;;5092898;28;20326;-58
2021/06/19 03:19:51;;;;;;;9.10;6.10;;;24.40;99.90;;;;;;5092284;28;20193;-58
2021/06/19 03:22:18;;;;;;;10.93;6.50;;;24.50;99.90;;;;;;5093073;28;20269;-57
2021/06/19 03:24:45;;;;;;;15.37;7.10;;;24.60;99.90;;;;;;5092814;28;20170;-57
2021/06/19 03:27:13;;;;;;;15.13;7.30;;;24.70;99.90;;;;;;5092765;28;20430;-57
2021/06/19 03:29:39;;;;;;;11.50;7.63;;;24.30;99.90;;;;;;5093088;28;20872;-56
2021/06/19 03:32:06;;;;;;;11.90;6.47;;;24.20;99.90;;;;;;5093020;28;20414;-58
2021/06/19 03:34:32;;;;;;;7.93;6.07;;;24.10;99.90;;;;;;5092300;28;20403;-58
2021/06/19 03:37:01;;;;;;;9.17;6.90;;;24.30;99.90;;;;;;5092184;28;21027;-58
2021/06/19 03:39:31;;;;;;;11.63;6.77;;;24.30;99.90;;;;;;5094872;28;20662;-57
2021/06/19 03:41:57;;;;;;;12.00;7.60;;;24.30;99.90;;;;;;5096784;28;20417;-56
2021/06/19 03:44:24;;;;;;;10.07;7.00;;;24.20;99.90;;;;;;5096562;28;20403;-56
2021/06/19 03:46:50;;;;;;;7.90;7.10;;;24.00;99.90;;;;;;5096348;28;20468;-56
2021/06/19 03:49:15;;;;;;;13.87;7.57;;;24.00;99.90;;;;;;5095889;28;20813;-57
2021/06/19 03:51:41;;;;;;;11.73;7.07;;;24.10;99.90;;;;;;5096354;28;20404;-57
2021/06/19 03:54:07;;;;;;;10.87;7.70;;;24.00;99.90;;;;;;5096297;28;20169;-57
2021/06/19 03:56:33;;;;;;;12.80;8.40;;;24.00;99.90;;;;;;5096175;28;20200;-56
2021/06/19 03:58:59;;;;;;;13.50;7.83;;;23.90;99.90;;;;;;5096095;28;20197;-56
2021/06/19 04:01:25;;;;;;;12.90;6.90;;;24.00;99.90;;;;;;5096159;28;20801;-57
2021/06/19 04:03:50;;;;;;;9.43;6.77;;;24.10;99.90;;;;;;5096098;28;20183;-56
2021/06/19 04:06:16;;;;;;;11.57;7.60;;;24.10;99.90;;;;;;5096012;28;20189;-57
2021/06/19 04:08:42;;;;;;;15.50;6.90;;;24.20;99.90;;;;;;5096016;28;20193;-54
2021/06/19 04:11:08;;;;;;;10.40;8.00;;;24.20;99.90;;;;;;5095909;28;20414;-56
2021/06/19 04:13:33;;;;;;;9.10;7.10;;;24.30;99.90;;;;;;5095982;28;20169;-57
2021/06/19 04:15:59;;;;;;;14.93;8.53;;;24.10;99.90;;;;;;5095811;28;20242;-56
2021/06/19 04:18:25;;;;;;;12.13;8.00;;;24.00;99.90;;;;;;5095530;28;20193;-56
2021/06/19 04:20:50;;;;;;;8.60;7.60;;;24.00;99.90;;;;;;5094566;28;20188;-57
2021/06/19 04:23:16;;;;;;;12.40;8.83;;;24.00;99.90;;;;;;5094685;28;20224;-52
2021/06/19 04:25:41;;;;;;;10.67;7.77;;;24.10;99.90;;;;;;5091672;28;20239;-55
2021/06/19 04:28:07;;;;;;;12.20;7.60;;;24.10;99.90;;;;;;5075399;28;20560;-56
2021/06/19 04:30:33;;;;;;;10.20;7.33;;;24.00;99.90;;;;;;5075359;28;20197;-56
2021/06/19 04:32:59;;;;;;;9.10;7.50;;;24.10;99.90;;;;;;5075490;28;20189;-57
2021/06/19 04:35:26;;;;;;;12.70;7.83;;;24.10;99.90;;;;;;5074799;28;20802;-56
2021/06/19 04:37:52;;;;;;;11.37;8.60;;;24.30;99.90;;;;;;5079518;28;20403;-57
2021/06/19 04:43:02;;;;;;;11.37;6.70;;;24.40;99.90;;;;;;5095824;28;20461;-56
2021/06/19 04:45:28;;;;;;;9.50;7.90;;;24.60;99.90;;;;;;5095289;28;20395;-55
2021/06/19 04:47:54;;;;;;;14.80;8.07;;;24.70;99.90;;;;;;5095344;28;20396;-53
2021/06/19 04:50:19;;;;;;;12.73;7.60;;;24.70;99.90;;;;;;5095057;28;20462;-55
2021/06/19 04:52:46;;;;;;;13.87;8.70;;;24.90;99.90;;;;;;5095501;28;20634;-54
2021/06/19 04:55:15;;;;;;;12.43;7.20;;;25.00;99.90;;;;;;5095386;28;20544;-54
2021/06/19 04:57:42;;;;;;;10.20;7.27;;;25.00;99.90;;;;;;5095218;28;20939;-55
2021/06/19 05:00:12;;;;;;;11.30;7.50;;;25.00;99.90;;;;;;5095550;28;20493;-57
2021/06/19 05:02:38;;;;;;;14.27;8.17;;;24.80;99.90;;;;;;5095084;28;20876;-54
2021/06/19 05:05:04;;;;;;;11.23;7.70;;;24.60;99.90;;;;;;5094817;28;20404;-57
2021/06/19 05:07:33;;;;;;;13.20;9.00;;;24.60;99.90;;;;;;5076835;28;20561;-57
2021/06/19 05:09:58;;;;;;;12.33;8.20;;;24.80;99.90;;;;;;5095707;28;20411;-57
2021/06/19 05:12:24;;;;;;;8.90;7.50;;;25.00;99.90;;;;;;5095047;28;20460;-56
2021/06/19 05:14:50;;;;;;;10.60;8.50;;;25.00;99.90;;;;;;5095419;28;20177;-57
2021/06/19 05:17:15;;;;;;;10.00;7.27;;;25.00;99.90;;;;;;5095093;28;20648;-55
2021/06/19 05:19:41;;;;;;;9.67;8.20;;;25.10;99.90;;;;;;5092783;28;20546;-57
2021/06/19 05:22:07;;;;;;;11.40;8.37;;;25.20;99.90;;;;;;5095143;28;20226;-54
2021/06/19 05:24:34;;;;;;;12.33;8.27;;;25.20;99.90;;;;;;5093243;28;20172;-55
2021/06/19 05:27:00;;;;;;;13.37;7.53;;;25.30;99.90;;;;;;5094771;28;20430;-55
2021/06/19 05:29:25;;;;;;;11.00;7.50;;;25.50;99.90;;;;;;5095048;28;20934;-54
2021/06/19 05:31:51;;;;;;;10.20;7.73;;;25.60;99.90;;;;;;5094249;28;20177;-53
2021/06/19 05:34:17;;;;;;;12.20;7.87;;;25.70;99.90;;;;;;5094520;28;20165;-56
2021/06/19 05:36:42;;;;;;;9.90;7.07;;;25.80;99.90;;;;;;5094566;28;20258;-54
2021/06/19 05:39:08;;;;;;;11.80;8.10;;;25.80;99.90;;;;;;5094209;28;20592;-56
2021/06/19 05:41:36;;;;;;;9.60;8.03;;;25.90;99.90;;;;;;5094576;28;20201;-55
2021/06/19 05:44:07;;;;;;;7.73;6.77;;;25.50;99.90;;;;;;5094178;28;20403;-57
2021/06/19 05:46:33;;;;;;;8.97;7.40;;;25.70;99.90;;;;;;5094350;28;20469;-55
2021/06/19 05:48:58;;;;;;;9.43;8.10;;;25.70;99.90;;;;;;5093808;28;20408;-56
2021/06/19 05:51:24;;;;;;;9.70;8.07;;;25.60;99.90;;;;;;5094122;28;20642;-55
2021/06/19 05:53:50;;;;;;;14.17;8.03;;;25.70;99.90;;;;;;5094045;28;20165;-56
2021/06/19 05:56:16;;;;;;;14.50;7.70;;;25.70;99.90;;;;;;5093732;28;20209;-57
2021/06/19 05:58:42;;;;;;;9.30;7.90;;;25.50;99.90;;;;;;5093869;28;20496;-58
2021/06/19 06:01:08;;;;;;;8.93;8.13;;;25.50;99.90;;;;;;5093776;28;20442;-58
2021/06/19 06:03:33;;;;;;;13.03;7.87;;;25.70;99.90;;;;;;5093898;28;20165;-55
2021/06/19 06:05:59;;;;;;;14.47;9.70;;;25.90;99.90;;;;;;5094439;28;20234;-56
2021/06/19 06:08:24;;;;;;;8.53;7.73;;;26.00;99.90;;;;;;5094103;28;20256;-57
2021/06/19 06:10:50;;;;;;;10.27;7.77;;;26.20;99.90;;;;;;5094023;28;20165;-53
2021/06/19 06:13:15;;;;;;;10.37;7.87;;;26.30;99.90;;;;;;5094432;28;20174;-54
2021/06/19 06:15:41;;;;;;;9.87;7.97;;;26.50;99.90;;;;;;5093734;28;20719;-56
2021/06/19 06:18:07;;;;;;;11.03;8.60;;;26.60;99.90;;;;;;5093630;28;20238;-55
2021/06/19 06:20:32;;;;;;;10.90;8.40;;;26.80;99.90;;;;;;5092307;28;20238;-55
2021/06/19 06:22:58;;;;;;;11.47;8.13;;;26.60;99.90;;;;;;5093532;28;20161;-56
2021/06/19 06:25:24;;;;;;;11.20;8.20;;;26.40;99.90;;;;;;5093063;28;20226;-55
2021/06/19 06:27:49;;;;;;;9.00;7.90;;;26.60;99.90;;;;;;5093779;28;20172;-54
2021/06/19 06:30:15;;;;;;;10.07;7.20;;;26.60;99.90;;;;;;5094057;28;20173;-54
2021/06/19 06:32:41;;;;;;;11.23;8.27;;;26.50;99.90;;;;;;5093367;28;20169;-55
2021/06/19 06:35:09;;;;;;;13.63;8.30;;;26.80;99.90;;;;;;5093170;28;20784;-56
2021/06/19 06:37:36;;;;;;;8.43;7.63;;;26.90;99.90;;;;;;5093679;28;20254;-56
2021/06/19 06:40:02;;;;;;;13.30;7.83;;;27.10;99.90;;;;;;5093248;28;20447;-56
2021/06/19 06:42:27;;;;;;;9.20;7.50;;;27.40;99.90;;;;;;5093626;28;20884;-56
2021/06/19 06:44:53;;;;;;;8.33;7.30;;;27.60;99.90;;;;;;5093324;28;20461;-55
2021/06/19 06:47:18;;;;;;;11.30;6.90;;;27.50;99.90;;;;;;5093127;28;20185;-55
2021/06/19 06:49:44;;;;;;;8.40;7.20;;;27.50;99.90;;;;;;5093260;28;20538;-56
2021/06/19 06:52:10;;;;;;;13.20;7.03;;;27.60;99.90;;;;;;5093360;28;20634;-55
2021/06/19 06:54:38;;;;;;;12.30;7.80;;;27.40;99.90;;;;;;5092950;28;20545;-55
2021/06/19 06:57:08;;;;;;;12.50;8.17;;;27.30;99.90;;;;;;5075123;28;20619;-54
2021/06/19 06:59:35;;;;;;;10.47;8.20;;;27.30;99.90;;;;;;5094196;28;20459;-56
2021/06/19 07:02:01;;;;;;;8.70;7.50;;;27.20;99.90;;;;;;5093248;28;20498;-57
2021/06/19 07:04:27;;;;;;;11.93;7.67;;;27.30;99.90;;;;;;5092917;28;20404;-55
2021/06/19 07:06:52;;;;;;;10.27;7.50;;;27.50;99.90;;;;;;5093341;28;20411;-57
2021/06/19 07:09:18;;;;;;;9.03;6.10;;;27.80;99.90;;;;;;5093100;28;20183;-56
2021/06/19 07:11:43;;;;;;;10.20;7.23;;;28.00;99.90;;;;;;5093530;28;20173;-57
2021/06/19 07:14:09;;;;;;;13.47;7.37;;;27.90;99.90;;;;;;5092645;28;20641;-58
2021/06/19 07:16:35;;;;;;;7.63;6.63;;;27.80;99.90;;;;;;5097236;28;20189;-57
2021/06/19 07:19:00;;;;;;;8.37;7.07;;;27.80;99.90;;;;;;5090867;28;20249;-56
2021/06/19 07:21:30;;;;;;;6.93;6.23;;;27.80;99.90;;;;;;5097815;28;20568;-57
2021/06/19 07:23:56;;;;;;;7.10;6.40;;;28.00;99.90;;;;;;5078639;28;20534;-57
2021/06/19 07:26:21;;;;;;;7.10;6.07;;;28.20;99.90;;;;;;5096361;28;20419;-57
2021/06/19 07:28:47;;;;;;;8.50;6.10;;;28.20;99.90;;;;;;5097167;28;20482;-55
2021/06/19 07:31:13;;;;;;;8.00;6.33;;;28.10;99.90;;;;;;5096712;28;20192;-57
2021/06/19 07:33:42;;;;;;;9.00;6.23;;;27.70;99.80;;;;;;5096190;28;20687;-54
2021/06/19 07:36:08;;;;;;;9.67;6.57;;;27.70;99.90;;;;;;5096330;28;20476;-56
2021/06/19 07:38:34;;;;;;;10.90;6.40;;;27.90;99.90;;;;;;5096452;28;20451;-56
2021/06/19 07:41:00;;;;;;;8.47;6.70;;;27.70;99.90;;;;;;5096280;28;20487;-57
2021/06/19 07:43:25;;;;;;;8.53;6.17;;;27.70;99.80;;;;;;5096747;28;20157;-56
2021/06/19 07:45:52;;;;;;;8.70;7.17;;;27.90;99.60;;;;;;5096347;28;20196;-57
2021/06/19 07:48:18;;;;;;;13.70;6.80;;;28.00;99.40;;;;;;5096429;28;20173;-56
2021/06/19 07:50:44;;;;;;;10.70;7.50;;;28.10;99.50;;;;;;5096079;28;20391;-57
2021/06/19 07:53:10;;;;;;;7.40;6.17;;;28.30;99.30;;;;;;5096104;28;20247;-59
2021/06/19 07:55:36;;;;;;;8.80;6.40;;;28.40;99.00;;;;;;5095850;28;20460;-59
2021/06/19 07:58:09;;;;;;;10.70;7.17;;;28.60;98.90;;;;;;5096746;28;20376;-58
2021/06/19 08:00:34;;;;;;;10.30;7.23;;;28.50;98.60;;;;;;5096170;28;20231;-59
2021/06/19 08:03:00;;;;;;;8.57;6.77;;;28.60;98.70;;;;;;5096080;28;20811;-59
2021/06/19 08:05:26;;;;;;;10.70;7.10;;;28.50;98.40;;;;;;5095788;28;20530;-59
2021/06/19 08:07:53;;;;;;;11.17;7.30;;;28.40;98.90;;;;;;5095959;28;20161;-58
2021/06/19 08:10:18;;;;;;;9.90;7.63;;;28.30;99.10;;;;;;5095795;28;20923;-57
2021/06/19 08:12:45;;;;;;;8.50;6.50;;;28.20;99.20;;;;;;5095836;28;20442;-57
2021/06/19 08:15:12;;;;;;;9.33;7.63;;;28.10;99.70;;;;;;5095767;28;20227;-55
2021/06/19 08:17:38;;;;;;;11.00;7.50;;;28.20;99.80;;;;;;5095585;28;20458;-57
2021/06/19 08:20:05;;;;;;;9.30;7.20;;;28.30;99.40;;;;;;5095383;28;20489;-58
2021/06/19 08:22:31;;;;;;;11.00;7.40;;;28.40;99.40;;;;;;5095912;28;20560;-59
2021/06/19 08:24:57;;;;;;;15.30;7.97;;;28.50;99.40;;;;;;5095128;28;20403;-59
2021/06/19 08:27:25;;;;;;;12.00;8.53;;;28.70;99.10;;;;;;5095763;28;20526;-56
2021/06/19 08:29:52;;;;;;;9.60;7.97;;;28.80;98.70;;;;;;5095796;28;20181;-59
2021/06/19 08:32:18;;;;;;;7.87;6.90;;;29.00;98.50;;;;;;5095513;28;20775;-59
2021/06/19 08:34:44;;;;;;;11.40;7.80;;;29.30;98.50;;;;;;5095556;28;20825;-59
2021/06/19 08:37:09;;;;;;;9.20;7.17;;;29.40;98.20;;;;;;5076988;28;20423;-59
2021/06/19 08:39:36;;;;;;;10.70;7.73;;;29.80;98.80;;;;;;5094989;28;20228;-58
2021/06/19 08:42:02;;;;;;;10.83;8.70;;;30.00;98.20;;;;;;5095677;28;20539;-59
2021/06/19 08:44:29;;;;;;;11.53;7.93;;;;;;;;;;5095552;28;20500;-59
2021/06/19 08:46:56;;;;;;;10.83;8.23;;;;;;;;;;5095064;28;20415;-59
2021/06/19 08:49:23;;;;;;;13.13;8.80;;;;;;;;;;5094978;28;20491;-59
2021/06/19 08:51:53;;;;;;;9.97;8.87;;;;;;;;;;5095498;28;20403;-59
2021/06/19 08:54:20;;;;;;;14.60;8.77;;;;;;;;;;5095357;28;20478;-59
2021/06/19 08:56:46;;;;;;;15.57;9.20;;;;;;;;;;5105352;22;20476;-58
2021/06/19 08:59:12;;;;;;;10.13;8.50;;;29.20;99.00;;;;;;5054821;28;20453;-57
2021/06/19 09:01:39;;;;;;;11.30;8.43;;;29.20;99.40;;;;;;5055124;28;20494;-58
2021/06/19 09:04:07;;;;;;;9.17;8.37;;;29.10;99.50;;;;;;5055111;28;20423;-58
2021/06/19 09:06:36;;;;;;;10.23;9.23;;;29.10;99.40;;;;;;5054894;28;20429;-58
2021/06/19 09:09:14;;;;;;;10.17;8.23;;;29.10;99.00;;;;;;5054936;28;20910;-58
2021/06/19 09:11:46;;;;;;;10.70;8.43;;;29.30;99.20;;;;;;5054612;28;20397;-58
2021/06/19 09:14:20;;;;;;;11.27;9.30;;;29.60;99.10;;;;;;5054462;28;20413;-58
2021/06/19 09:17:07;;;;;;;11.37;7.87;;;29.70;98.20;;;;;;5054634;28;20436;-57
2021/06/19 09:19:38;;;;;;;11.03;8.20;;;29.80;98.20;;;;;;5054409;28;20456;-58
2021/06/19 09:22:33;;;;;;;13.30;8.03;;;29.80;98.50;;;;;;5053288;28;20414;-58
2021/06/19 09:24:59;;;;;;;11.37;8.90;;;29.80;97.60;;;;;;5049488;28;20413;-57
2021/06/19 09:27:31;;;;;;;11.90;8.13;;;29.50;98.50;;;;;;5054556;28;20425;-58
2021/06/19 09:30:15;;;;;;;9.63;7.67;;;29.60;98.30;;;;;;5054543;28;20852;-58
2021/06/19 09:32:47;;;;;;;11.43;8.27;;;29.80;98.30;;;;;;5054453;28;20393;-58
2021/06/19 09:35:19;;;;;;;10.60;8.23;;;29.80;97.60;;;;;;5054016;28;20405;-58
2021/06/19 09:37:49;;;;;;;14.03;8.90;;;29.90;97.20;;;;;;5053702;28;20433;-58
2021/06/19 09:40:29;;;;;;;8.80;7.40;;;30.00;97.90;;;;;;5055200;28;20452;-57
2021/06/19 09:43:11;;;;;;;9.70;7.60;;;30.20;97.90;;;;;;5054221;28;20408;-57
2021/06/19 09:45:39;;;;;;;8.20;7.33;;;30.20;97.70;;;;;;5054335;28;20730;-57
2021/06/19 09:48:21;;;;;;;10.50;7.80;;;30.30;98.30;;;;;;5053880;28;20917;-60
2021/06/19 09:50:46;;;;;;;12.60;8.00;;;30.60;97.30;;;;;;5053838;28;20409;-57
2021/06/19 09:53:13;;;;;;;8.90;8.00;;;30.70;97.10;;;;;;5054447;28;20758;-55
2021/06/19 09:56:05;;;;;;;10.53;7.60;;;30.90;96.50;;;;;;5053692;28;20167;-57
2021/06/19 09:58:53;;;;;;;10.00;8.07;;;31.00;95.40;;;;;;5054134;28;20402;-57
2021/06/19 10:01:39;;;;;;;10.23;7.90;;;30.90;95.40;;;;;;5053757;28;20409;-57
2021/06/19 10:04:06;;;;;;;7.93;7.23;;;30.70;95.70;;;;;;5052541;28;20417;-58
2021/06/19 10:06:32;;;;;;;8.30;7.53;;;30.60;95.00;;;;;;5045677;28;20456;-58
2021/06/19 10:08:59;;;;;;;9.50;7.70;;;30.70;94.70;;;;;;5052299;28;20431;-57
2021/06/19 10:11:26;;;;;;;12.00;7.90;;;30.90;94.40;;;;;;5053326;28;20425;-58
2021/06/19 10:13:55;;;;;;;9.73;7.10;;;31.00;94.20;;;;;;5053987;28;20499;-57
2021/06/19 10:16:25;;;;;;;8.30;7.50;;;31.00;95.10;;;;;;5053821;28;20465;-54
2021/06/19 10:18:52;;;;;;;10.13;7.87;;;31.30;94.50;;;;;;5053544;28;20945;-56
2021/06/19 10:21:18;;;;;;;9.73;8.70;;;31.50;94.30;;;;;;5053429;28;20414;-55
2021/06/19 10:23:44;;;;;;;10.27;8.10;;;31.60;94.60;;;;;;5053295;28;20420;-56
2021/06/19 10:26:11;;;;;;;8.70;7.67;;;31.80;95.40;;;;;;5053296;28;20664;-55
2021/06/19 10:28:48;;;;;;;11.00;7.73;;;31.40;94.20;;;;;;5053255;28;20405;-55
2021/06/19 10:31:18;;;;;;;12.00;8.03;;;31.00;94.50;;;;;;5053529;28;20385;-55
2021/06/19 10:33:44;;;;;;;9.00;6.70;;;31.00;93.90;;;;;;5045272;28;20423;-58
2021/06/19 10:36:12;;;;;;;9.53;8.30;;;30.90;94.90;;;;;;5049421;28;20776;-58
2021/06/19 10:38:53;;;;;;;11.73;7.67;;;30.80;94.30;;;;;;5053429;28;20452;-58
2021/06/19 10:41:43;;;;;;;11.90;8.30;;;31.30;94.50;;;;;;5052761;28;20419;-58
2021/06/19 10:44:09;;;;;;;9.33;7.57;;;31.70;94.50;;;;;;5053007;28;20386;-58
2021/06/19 10:46:36;;;;;;;13.73;8.10;;;32.00;93.70;;;;;;5053364;28;20429;-58
2021/06/19 10:49:20;;;;;;;10.83;8.40;;;31.90;93.30;;;;;;5052877;28;20425;-58
2021/06/19 10:51:47;;;;;;;9.70;7.43;;;31.80;93.30;;;;;;5052796;28;20504;-58
2021/06/19 10:54:17;;;;;;;10.30;7.87;;;31.60;93.20;;;;;;5053196;28;20459;-58
2021/06/19 10:56:45;;;;;;;11.00;7.53;;;31.60;93.70;;;;;;5052621;28;20441;-57
2021/06/19 10:59:19;;;;;;;8.73;7.80;;;32.10;93.60;;;;;;5053008;28;20445;-58
2021/06/19 11:01:45;;;;;;;9.93;7.27;;;32.40;92.10;;;;;;5053455;28;20373;-57
2021/06/19 11:04:39;;;;;;;11.17;7.00;;;32.40;92.60;;;;;;5052892;28;20393;-57
2021/06/19 11:07:46;;;;;;;13.03;7.10;;;32.60;92.10;;;;;;5052675;28;20905;-58
2021/06/19 11:10:50;;;;;;;8.90;7.10;;;32.70;91.70;;;;;;5052354;28;20468;-58
2021/06/19 11:13:27;;;;;;;13.03;8.67;;;33.10;92.30;;;;;;5052675;28;20415;-58
2021/06/19 11:16:01;;;;;;;9.17;7.13;;;33.10;91.70;;;;;;5052809;28;20405;-58
2021/06/19 11:18:53;;;;;;;9.93;7.20;;;32.70;91.10;;;;;;5052850;28;20385;-58
2021/06/19 11:21:32;;;;;;;7.60;6.80;;;32.50;92.20;;;;;;5031489;28;20413;-58
2021/06/19 11:24:04;;;;;;;7.57;6.70;;;32.80;90.90;;;;;;5040892;28;20417;-58
2021/06/19 11:27:00;;;;;;;9.87;7.23;;;33.20;90.70;;;;;;5052809;28;20416;-58
2021/06/19 11:29:40;;;;;;;9.20;7.43;;;33.10;90.40;;;;;;5053177;28;20397;-58
2021/06/19 11:32:24;;;;;;;10.17;7.30;;;33.60;90.00;;;;;;5053389;28;20386;-58
2021/06/19 11:34:51;;;;;;;12.07;6.90;;;34.30;85.00;;;;;;5053084;28;20881;-57
2021/06/19 11:37:17;;;;;;;7.87;5.70;;;34.40;83.10;;;;;;5053071;28;20902;-58
2021/06/19 11:39:43;;;;;;;10.50;7.20;;;35.20;80.10;;;;;;5052355;28;20452;-58
2021/06/19 11:42:09;;;;;;;11.60;6.30;;;36.40;76.30;;;;;;5069497;28;20170;-59
2021/06/19 11:44:43;;;;;;;9.40;7.20;;;36.30;77.00;;;;;;5072705;28;20431;-59
2021/06/19 11:47:10;;;;;;;8.97;6.40;;;36.70;78.00;;;;;;5072852;28;20204;-59
2021/06/19 11:49:45;;;;;;;10.53;6.63;;;37.40;75.70;;;;;;5072743;28;20462;-58
2021/06/19 11:52:20;;;;;;;9.50;6.37;;;38.30;72.90;;;;;;5072715;28;20403;-57
2021/06/19 11:54:50;;;;;;;10.70;6.83;;;38.00;70.80;;;;;;5057396;28;20408;-58
2021/06/19 11:57:25;;;;;;;9.30;6.20;;;37.10;70.20;;;;;;5052244;28;20453;-59
2021/06/19 12:00:11;;;;;;;12.77;6.30;;;38.00;67.70;;;;;;5054123;28;20535;-59
2021/06/19 12:02:37;;;;;;;6.87;5.50;;;38.30;63.70;;;;;;5055809;28;20952;-59
2021/06/19 12:05:16;;;;;;;8.17;5.77;;;38.40;62.70;;;;;;5056713;28;20397;-58
2021/06/19 12:07:50;;;;;;;8.20;5.97;;;39.30;60.50;;;;;;5056194;28;20214;-59
2021/06/19 12:10:25;;;;;;;10.70;5.60;;;40.00;57.40;;;;;;5055584;28;20396;-60
2021/06/19 12:13:02;;;;;;;9.57;5.40;;;40.30;57.10;;;;;;5055988;28;20415;-57
2021/06/19 12:15:28;;;;;;;10.03;5.33;;;40.00;57.50;;;;;;5056249;28;20392;-58
2021/06/19 12:17:54;;;;;;;6.67;5.90;;;40.10;56.60;;;;;;5056100;28;20428;-58
2021/06/19 12:20:24;;;;;;;9.00;5.43;;;39.00;58.70;;;;;;5054551;28;20476;-58
2021/06/19 12:22:51;;;;;;;7.77;6.60;;;39.40;58.80;;;;;;5056234;28;20186;-58
2021/06/19 12:25:30;;;;;;;8.40;5.20;;;38.70;59.00;;;;;;5055438;28;20480;-58
2021/06/19 12:27:56;;;;;;;12.53;5.60;;;39.10;59.00;;;;;;5056037;28;20414;-57
2021/06/19 12:30:22;;;;;;;8.40;4.87;;;40.30;54.80;;;;;;5056060;28;20479;-58
2021/06/19 12:32:49;;;;;;;4.93;4.43;;;40.40;53.50;;;;;;5056005;28;20610;-57
2021/06/19 12:35:17;;;;;;;10.53;5.13;;;41.40;52.30;;;;;;5055864;28;20534;-58
2021/06/19 12:37:53;;;;;;;10.53;4.97;;;42.40;49.80;;;;;;5056039;28;20429;-59
2021/06/19 12:40:24;;;;;;;8.17;5.10;;;41.70;47.70;;;;;;5054873;28;20428;-58
2021/06/19 12:42:53;;;;;;;6.23;3.90;;;41.20;48.70;;;;;;5055542;28;20416;-59
2021/06/19 12:45:21;;;;;;;7.40;4.37;;;41.40;46.60;;;;;;5055757;28;20762;-58
2021/06/19 12:47:49;;;;;;;14.73;4.10;;;41.20;46.60;;;;;;5055491;28;20786;-57
2021/06/19 12:50:31;;;;;;;10.57;4.13;;;41.90;43.10;;;;;;5055435;28;20404;-59
2021/06/19 12:53:03;;;;;;;10.60;4.63;;;41.10;45.70;;;;;;5055334;28;20753;-58
2021/06/19 12:55:42;;;;;;;10.10;4.47;;;41.50;44.40;;;;;;5054839;28;20393;-58